金海国際空港の過去48時間の天気

金海国際空港 (Pusan / Kimhae International Airport)

現在時刻: 5/26 10:48 KST (5/26 01:48 UTC) 以下の時間は現地時間です。

過去48時間のMETAR気象情報
時間 風向 風速(m/s) 視程 気温(℃) 湿度(%) 気圧(hPa) 天気現象
26 09:00 西北西 3 10km以上 24 44 1005
26 08:00 西南西 1 10km以上 23 50 1005
26 07:33 南西 1 10km以上 22 50 1005
26 07:00 南西 1 10km以上 21 64 1005
26 06:00 西南西 2 10km以上 20 68 1005
26 05:00 西南西 2 10km以上 20 68 1004
RKPK 260000Z 30005KT 9999 FEW040 BKN200 24/11 Q1005
RKPK 252300Z 25001KT CAVOK 23/12 Q1005
RKPK 252233Z 22002KT CAVOK 22/11 Q1005 RMK CIG200
RKPK 252200Z 23002KT CAVOK 21/14 Q1005
RKPK 252100Z 25004KT CAVOK 20/14 Q1005
RKPK 252000Z 24004KT CAVOK 20/14 Q1004